sensor_id;sensor_type;location;lat;lon;timestamp;P1;durP1;ratioP1;P2;durP2;ratioP2
69754;SDS011;57023;52.218;5.158;2023-06-10T00:01:45;9.60;;;5.30;;
69754;SDS011;57023;52.218;5.158;2023-06-10T00:04:12;11.48;;;5.07;;
69754;SDS011;57023;52.218;5.158;2023-06-10T00:06:39;7.90;;;5.22;;
69754;SDS011;57023;52.218;5.158;2023-06-10T00:09:05;7.22;;;4.88;;
69754;SDS011;57023;52.218;5.158;2023-06-10T00:11:34;12.02;;;5.25;;
69754;SDS011;57023;52.218;5.158;2023-06-10T00:14:01;8.03;;;5.20;;
69754;SDS011;57023;52.218;5.158;2023-06-10T00:16:26;9.57;;;5.20;;
69754;SDS011;57023;52.218;5.158;2023-06-10T00:18:51;8.77;;;5.38;;
69754;SDS011;57023;52.218;5.158;2023-06-10T00:21:17;7.80;;;5.00;;
69754;SDS011;57023;52.218;5.158;2023-06-10T00:23:42;7.95;;;5.18;;
69754;SDS011;57023;52.218;5.158;2023-06-10T00:26:14;10.45;;;5.13;;
69754;SDS011;57023;52.218;5.158;2023-06-10T00:28:40;11.63;;;5.00;;
69754;SDS011;57023;52.218;5.158;2023-06-10T00:31:05;8.50;;;5.18;;
69754;SDS011;57023;52.218;5.158;2023-06-10T00:33:31;7.53;;;5.00;;
69754;SDS011;57023;52.218;5.158;2023-06-10T00:35:56;9.30;;;5.18;;
69754;SDS011;57023;52.218;5.158;2023-06-10T00:38:21;9.50;;;4.95;;
69754;SDS011;57023;52.218;5.158;2023-06-10T00:40:47;8.25;;;4.97;;
69754;SDS011;57023;52.218;5.158;2023-06-10T00:43:12;9.15;;;4.85;;
69754;SDS011;57023;52.218;5.158;2023-06-10T00:45:37;7.60;;;4.57;;
69754;SDS011;57023;52.218;5.158;2023-06-10T00:48:03;7.32;;;4.85;;
69754;SDS011;57023;52.218;5.158;2023-06-10T00:50:28;9.88;;;4.85;;
69754;SDS011;57023;52.218;5.158;2023-06-10T00:52:56;9.32;;;4.95;;
69754;SDS011;57023;52.218;5.158;2023-06-10T00:55:23;9.10;;;4.90;;
69754;SDS011;57023;52.218;5.158;2023-06-10T00:57:52;9.13;;;5.00;;
69754;SDS011;57023;52.218;5.158;2023-06-10T01:00:18;9.23;;;4.80;;
69754;SDS011;57023;52.218;5.158;2023-06-10T01:02:43;8.15;;;4.93;;
69754;SDS011;57023;52.218;5.158;2023-06-10T01:05:11;8.68;;;4.80;;
69754;SDS011;57023;52.218;5.158;2023-06-10T01:10:11;10.60;;;5.30;;
69754;SDS011;57023;52.218;5.158;2023-06-10T01:12:43;8.40;;;4.90;;
69754;SDS011;57023;52.218;5.158;2023-06-10T01:15:28;9.77;;;5.00;;
69754;SDS011;57023;52.218;5.158;2023-06-10T01:18:13;8.73;;;4.80;;
69754;SDS011;57023;52.218;5.158;2023-06-10T01:20:40;10.18;;;4.97;;
69754;SDS011;57023;52.218;5.158;2023-06-10T01:23:09;10.25;;;5.38;;
69754;SDS011;57023;52.218;5.158;2023-06-10T01:25:39;7.93;;;4.80;;
69754;SDS011;57023;52.218;5.158;2023-06-10T01:31:00;9.57;;;4.88;;
69754;SDS011;57023;52.218;5.158;2023-06-10T01:33:58;9.60;;;4.82;;
69754;SDS011;57023;52.218;5.158;2023-06-10T01:36:24;9.43;;;4.77;;
69754;SDS011;57023;52.218;5.158;2023-06-10T01:38:50;8.38;;;4.97;;
69754;SDS011;57023;52.218;5.158;2023-06-10T01:41:18;8.57;;;5.05;;
69754;SDS011;57023;52.218;5.158;2023-06-10T01:43:45;8.30;;;5.20;;
69754;SDS011;57023;52.218;5.158;2023-06-10T01:46:10;7.68;;;5.00;;
69754;SDS011;57023;52.218;5.158;2023-06-10T01:48:37;8.77;;;5.00;;
69754;SDS011;57023;52.218;5.158;2023-06-10T01:51:03;8.02;;;4.97;;
69754;SDS011;57023;52.218;5.158;2023-06-10T01:53:28;8.57;;;4.85;;
69754;SDS011;57023;52.218;5.158;2023-06-10T01:55:54;7.93;;;4.82;;
69754;SDS011;57023;52.218;5.158;2023-06-10T01:58:19;8.85;;;5.40;;
69754;SDS011;57023;52.218;5.158;2023-06-10T02:00:44;8.25;;;4.95;;
69754;SDS011;57023;52.218;5.158;2023-06-10T02:03:10;8.63;;;4.70;;
69754;SDS011;57023;52.218;5.158;2023-06-10T02:05:35;7.78;;;4.38;;
69754;SDS011;57023;52.218;5.158;2023-06-10T02:08:00;8.00;;;5.07;;
69754;SDS011;57023;52.218;5.158;2023-06-10T02:10:26;8.40;;;5.05;;
69754;SDS011;57023;52.218;5.158;2023-06-10T02:12:51;7.70;;;5.20;;
69754;SDS011;57023;52.218;5.158;2023-06-10T02:15:20;7.47;;;5.13;;
69754;SDS011;57023;52.218;5.158;2023-06-10T02:17:45;8.77;;;4.90;;
69754;SDS011;57023;52.218;5.158;2023-06-10T02:20:10;7.07;;;4.80;;
69754;SDS011;57023;52.218;5.158;2023-06-10T02:22:37;9.23;;;4.97;;
69754;SDS011;57023;52.218;5.158;2023-06-10T02:25:02;8.93;;;5.47;;
69754;SDS011;57023;52.218;5.158;2023-06-10T02:27:28;9.45;;;5.13;;
69754;SDS011;57023;52.218;5.158;2023-06-10T02:29:54;8.23;;;4.68;;
69754;SDS011;57023;52.218;5.158;2023-06-10T02:32:19;8.52;;;5.45;;
69754;SDS011;57023;52.218;5.158;2023-06-10T02:34:45;8.80;;;5.47;;
69754;SDS011;57023;52.218;5.158;2023-06-10T02:37:10;9.00;;;5.47;;
69754;SDS011;57023;52.218;5.158;2023-06-10T02:39:36;7.63;;;5.22;;
69754;SDS011;57023;52.218;5.158;2023-06-10T02:42:04;7.00;;;5.20;;
69754;SDS011;57023;52.218;5.158;2023-06-10T02:44:30;8.52;;;5.15;;
69754;SDS011;57023;52.218;5.158;2023-06-10T02:46:55;7.97;;;5.13;;
69754;SDS011;57023;52.218;5.158;2023-06-10T02:49:21;9.10;;;5.53;;
69754;SDS011;57023;52.218;5.158;2023-06-10T02:51:46;7.68;;;5.45;;
69754;SDS011;57023;52.218;5.158;2023-06-10T02:54:11;9.45;;;5.22;;
69754;SDS011;57023;52.218;5.158;2023-06-10T02:56:37;8.90;;;5.43;;
69754;SDS011;57023;52.218;5.158;2023-06-10T02:59:02;7.93;;;5.18;;
69754;SDS011;57023;52.218;5.158;2023-06-10T03:01:27;8.50;;;5.65;;
69754;SDS011;57023;52.218;5.158;2023-06-10T03:03:53;8.38;;;5.40;;
69754;SDS011;57023;52.218;5.158;2023-06-10T03:06:18;8.73;;;5.38;;
69754;SDS011;57023;52.218;5.158;2023-06-10T03:08:43;9.00;;;5.25;;
69754;SDS011;57023;52.218;5.158;2023-06-10T03:11:10;10.10;;;5.82;;
69754;SDS011;57023;52.218;5.158;2023-06-10T03:13:35;8.15;;;5.13;;
69754;SDS011;57023;52.218;5.158;2023-06-10T03:16:01;9.10;;;5.30;;
69754;SDS011;57023;52.218;5.158;2023-06-10T03:18:28;9.73;;;5.82;;
69754;SDS011;57023;52.218;5.158;2023-06-10T03:20:54;7.82;;;5.10;;
69754;SDS011;57023;52.218;5.158;2023-06-10T03:23:20;9.77;;;5.50;;
69754;SDS011;57023;52.218;5.158;2023-06-10T03:25:45;10.25;;;5.72;;
69754;SDS011;57023;52.218;5.158;2023-06-10T03:28:11;8.68;;;5.05;;
69754;SDS011;57023;52.218;5.158;2023-06-10T03:30:36;10.98;;;5.53;;
69754;SDS011;57023;52.218;5.158;2023-06-10T03:33:01;9.55;;;5.40;;
69754;SDS011;57023;52.218;5.158;2023-06-10T03:35:26;11.32;;;5.45;;
69754;SDS011;57023;52.218;5.158;2023-06-10T03:37:52;9.40;;;5.38;;
69754;SDS011;57023;52.218;5.158;2023-06-10T03:40:17;9.95;;;5.80;;
69754;SDS011;57023;52.218;5.158;2023-06-10T03:42:43;8.38;;;5.40;;
69754;SDS011;57023;52.218;5.158;2023-06-10T03:45:09;9.75;;;5.63;;
69754;SDS011;57023;52.218;5.158;2023-06-10T03:47:35;8.48;;;5.43;;
69754;SDS011;57023;52.218;5.158;2023-06-10T03:50:05;9.63;;;5.38;;
69754;SDS011;57023;52.218;5.158;2023-06-10T03:52:31;9.68;;;5.53;;
69754;SDS011;57023;52.218;5.158;2023-06-10T03:54:57;9.23;;;5.55;;
69754;SDS011;57023;52.218;5.158;2023-06-10T03:57:25;9.30;;;5.50;;
69754;SDS011;57023;52.218;5.158;2023-06-10T03:59:51;8.95;;;5.80;;
69754;SDS011;57023;52.218;5.158;2023-06-10T04:02:16;10.98;;;5.68;;
69754;SDS011;57023;52.218;5.158;2023-06-10T04:04:41;8.70;;;5.50;;
69754;SDS011;57023;52.218;5.158;2023-06-10T04:07:07;9.98;;;5.60;;
69754;SDS011;57023;52.218;5.158;2023-06-10T04:09:34;10.55;;;5.78;;
69754;SDS011;57023;52.218;5.158;2023-06-10T04:11:59;9.52;;;5.68;;
69754;SDS011;57023;52.218;5.158;2023-06-10T04:14:24;8.52;;;5.70;;
69754;SDS011;57023;52.218;5.158;2023-06-10T04:16:50;13.48;;;6.13;;
69754;SDS011;57023;52.218;5.158;2023-06-10T04:19:15;9.23;;;5.30;;
69754;SDS011;57023;52.218;5.158;2023-06-10T04:21:41;8.70;;;5.55;;
69754;SDS011;57023;52.218;5.158;2023-06-10T04:24:06;9.98;;;5.93;;
69754;SDS011;57023;52.218;5.158;2023-06-10T04:26:32;10.82;;;6.15;;
69754;SDS011;57023;52.218;5.158;2023-06-10T04:28:58;8.97;;;5.63;;
69754;SDS011;57023;52.218;5.158;2023-06-10T04:31:23;9.23;;;5.78;;
69754;SDS011;57023;52.218;5.158;2023-06-10T04:33:49;9.95;;;5.68;;
69754;SDS011;57023;52.218;5.158;2023-06-10T04:36:14;11.63;;;5.43;;
69754;SDS011;57023;52.218;5.158;2023-06-10T04:38:39;9.48;;;5.80;;
69754;SDS011;57023;52.218;5.158;2023-06-10T04:41:05;9.80;;;5.90;;
69754;SDS011;57023;52.218;5.158;2023-06-10T04:43:31;8.73;;;5.72;;
69754;SDS011;57023;52.218;5.158;2023-06-10T04:45:56;8.82;;;5.82;;
69754;SDS011;57023;52.218;5.158;2023-06-10T04:48:21;9.50;;;6.05;;
69754;SDS011;57023;52.218;5.158;2023-06-10T04:50:58;11.13;;;6.43;;
69754;SDS011;57023;52.218;5.158;2023-06-10T04:53:24;10.27;;;5.80;;
69754;SDS011;57023;52.218;5.158;2023-06-10T04:55:49;9.93;;;5.78;;
69754;SDS011;57023;52.218;5.158;2023-06-10T04:58:14;10.88;;;5.95;;
69754;SDS011;57023;52.218;5.158;2023-06-10T05:00:42;10.40;;;6.10;;
69754;SDS011;57023;52.218;5.158;2023-06-10T05:03:08;11.13;;;6.28;;
69754;SDS011;57023;52.218;5.158;2023-06-10T05:05:34;12.50;;;6.03;;
69754;SDS011;57023;52.218;5.158;2023-06-10T05:07:59;9.48;;;5.90;;
69754;SDS011;57023;52.218;5.158;2023-06-10T05:10:24;8.80;;;5.63;;
69754;SDS011;57023;52.218;5.158;2023-06-10T05:12:50;12.18;;;5.70;;
69754;SDS011;57023;52.218;5.158;2023-06-10T05:15:15;9.43;;;6.05;;
69754;SDS011;57023;52.218;5.158;2023-06-10T05:17:41;9.75;;;6.00;;
69754;SDS011;57023;52.218;5.158;2023-06-10T05:20:07;12.75;;;6.20;;
69754;SDS011;57023;52.218;5.158;2023-06-10T05:22:33;9.32;;;6.70;;
69754;SDS011;57023;52.218;5.158;2023-06-10T05:24:59;9.97;;;6.40;;
69754;SDS011;57023;52.218;5.158;2023-06-10T05:27:24;9.70;;;6.07;;
69754;SDS011;57023;52.218;5.158;2023-06-10T05:29:50;13.45;;;6.50;;
69754;SDS011;57023;52.218;5.158;2023-06-10T05:32:16;9.60;;;5.88;;
69754;SDS011;57023;52.218;5.158;2023-06-10T05:34:45;12.50;;;6.40;;
69754;SDS011;57023;52.218;5.158;2023-06-10T05:37:10;11.98;;;6.38;;
69754;SDS011;57023;52.218;5.158;2023-06-10T05:39:39;11.40;;;6.32;;
69754;SDS011;57023;52.218;5.158;2023-06-10T05:42:06;10.35;;;6.43;;
69754;SDS011;57023;52.218;5.158;2023-06-10T05:44:32;11.13;;;6.18;;
69754;SDS011;57023;52.218;5.158;2023-06-10T05:46:57;10.05;;;6.20;;
69754;SDS011;57023;52.218;5.158;2023-06-10T05:49:23;12.25;;;6.68;;
69754;SDS011;57023;52.218;5.158;2023-06-10T05:51:48;12.52;;;6.13;;
69754;SDS011;57023;52.218;5.158;2023-06-10T05:54:17;9.98;;;6.22;;
69754;SDS011;57023;52.218;5.158;2023-06-10T05:56:42;10.15;;;6.10;;
69754;SDS011;57023;52.218;5.158;2023-06-10T05:59:08;11.48;;;6.65;;
69754;SDS011;57023;52.218;5.158;2023-06-10T06:01:34;12.45;;;6.82;;
69754;SDS011;57023;52.218;5.158;2023-06-10T06:03:59;8.90;;;6.40;;
69754;SDS011;57023;52.218;5.158;2023-06-10T06:06:25;8.50;;;6.15;;
69754;SDS011;57023;52.218;5.158;2023-06-10T06:08:50;9.93;;;6.63;;
69754;SDS011;57023;52.218;5.158;2023-06-10T06:11:18;12.80;;;6.28;;
69754;SDS011;57023;52.218;5.158;2023-06-10T06:13:43;10.32;;;6.55;;
69754;SDS011;57023;52.218;5.158;2023-06-10T06:16:09;10.73;;;6.53;;
69754;SDS011;57023;52.218;5.158;2023-06-10T06:18:34;10.30;;;6.32;;
69754;SDS011;57023;52.218;5.158;2023-06-10T06:20:59;10.85;;;6.47;;
69754;SDS011;57023;52.218;5.158;2023-06-10T06:23:25;9.38;;;6.00;;
69754;SDS011;57023;52.218;5.158;2023-06-10T06:25:50;10.63;;;6.50;;
69754;SDS011;57023;52.218;5.158;2023-06-10T06:28:15;12.48;;;6.22;;
69754;SDS011;57023;52.218;5.158;2023-06-10T06:30:40;10.02;;;6.38;;
69754;SDS011;57023;52.218;5.158;2023-06-10T06:33:06;11.70;;;5.88;;
69754;SDS011;57023;52.218;5.158;2023-06-10T06:35:32;9.43;;;6.20;;
69754;SDS011;57023;52.218;5.158;2023-06-10T06:37:58;10.88;;;6.50;;
69754;SDS011;57023;52.218;5.158;2023-06-10T06:40:24;10.40;;;6.32;;
69754;SDS011;57023;52.218;5.158;2023-06-10T06:42:49;10.10;;;6.13;;
69754;SDS011;57023;52.218;5.158;2023-06-10T06:45:15;10.73;;;6.43;;
69754;SDS011;57023;52.218;5.158;2023-06-10T06:47:40;8.60;;;5.80;;
69754;SDS011;57023;52.218;5.158;2023-06-10T06:50:05;9.82;;;6.32;;
69754;SDS011;57023;52.218;5.158;2023-06-10T06:52:31;10.15;;;6.63;;
69754;SDS011;57023;52.218;5.158;2023-06-10T06:54:56;10.18;;;6.15;;
69754;SDS011;57023;52.218;5.158;2023-06-10T06:57:24;15.02;;;6.38;;
69754;SDS011;57023;52.218;5.158;2023-06-10T06:59:52;13.20;;;6.43;;
69754;SDS011;57023;52.218;5.158;2023-06-10T07:02:18;10.63;;;6.80;;
69754;SDS011;57023;52.218;5.158;2023-06-10T07:04:44;10.93;;;6.78;;
69754;SDS011;57023;52.218;5.158;2023-06-10T07:07:10;12.35;;;6.53;;
69754;SDS011;57023;52.218;5.158;2023-06-10T07:09:38;10.70;;;6.30;;
69754;SDS011;57023;52.218;5.158;2023-06-10T07:12:04;10.25;;;6.72;;
69754;SDS011;57023;52.218;5.158;2023-06-10T07:14:32;11.00;;;6.90;;
69754;SDS011;57023;52.218;5.158;2023-06-10T07:16:58;8.82;;;5.72;;
69754;SDS011;57023;52.218;5.158;2023-06-10T07:19:23;9.53;;;6.77;;
69754;SDS011;57023;52.218;5.158;2023-06-10T07:21:48;9.27;;;6.20;;
69754;SDS011;57023;52.218;5.158;2023-06-10T07:24:14;12.10;;;5.97;;
69754;SDS011;57023;52.218;5.158;2023-06-10T07:26:39;9.10;;;6.45;;
69754;SDS011;57023;52.218;5.158;2023-06-10T07:29:04;8.77;;;6.07;;
69754;SDS011;57023;52.218;5.158;2023-06-10T07:31:30;11.85;;;6.22;;
69754;SDS011;57023;52.218;5.158;2023-06-10T07:33:55;11.18;;;6.10;;
69754;SDS011;57023;52.218;5.158;2023-06-10T07:36:20;9.45;;;6.25;;
69754;SDS011;57023;52.218;5.158;2023-06-10T07:38:46;9.13;;;5.97;;
69754;SDS011;57023;52.218;5.158;2023-06-10T07:41:11;10.10;;;6.43;;
69754;SDS011;57023;52.218;5.158;2023-06-10T07:43:36;9.93;;;5.80;;
69754;SDS011;57023;52.218;5.158;2023-06-10T07:46:05;11.50;;;5.88;;
69754;SDS011;57023;52.218;5.158;2023-06-10T07:48:30;9.17;;;5.80;;
69754;SDS011;57023;52.218;5.158;2023-06-10T07:50:56;9.00;;;6.17;;
69754;SDS011;57023;52.218;5.158;2023-06-10T07:53:21;9.43;;;6.20;;
69754;SDS011;57023;52.218;5.158;2023-06-10T07:55:46;10.83;;;6.53;;
69754;SDS011;57023;52.218;5.158;2023-06-10T07:58:15;10.07;;;6.25;;
69754;SDS011;57023;52.218;5.158;2023-06-10T08:00:40;11.53;;;6.07;;
69754;SDS011;57023;52.218;5.158;2023-06-10T08:03:05;9.67;;;6.27;;
69754;SDS011;57023;52.218;5.158;2023-06-10T08:05:30;11.90;;;5.87;;
69754;SDS011;57023;52.218;5.158;2023-06-10T08:07:56;10.73;;;6.00;;
69754;SDS011;57023;52.218;5.158;2023-06-10T08:10:21;9.70;;;5.90;;
69754;SDS011;57023;52.218;5.158;2023-06-10T08:12:47;9.63;;;5.83;;
69754;SDS011;57023;52.218;5.158;2023-06-10T08:15:12;9.23;;;6.00;;
69754;SDS011;57023;52.218;5.158;2023-06-10T08:17:37;9.37;;;5.63;;
69754;SDS011;57023;52.218;5.158;2023-06-10T08:20:03;8.43;;;5.90;;
69754;SDS011;57023;52.218;5.158;2023-06-10T08:24:55;8.27;;;5.50;;
69754;SDS011;57023;52.218;5.158;2023-06-10T08:27:21;10.00;;;5.73;;
69754;SDS011;57023;52.218;5.158;2023-06-10T08:29:46;10.23;;;5.53;;
69754;SDS011;57023;52.218;5.158;2023-06-10T08:32:12;8.47;;;5.67;;
69754;SDS011;57023;52.218;5.158;2023-06-10T08:34:37;8.53;;;6.23;;
69754;SDS011;57023;52.218;5.158;2023-06-10T08:37:03;9.03;;;5.67;;
69754;SDS011;57023;52.218;5.158;2023-06-10T08:39:28;10.25;;;5.78;;
69754;SDS011;57023;52.218;5.158;2023-06-10T08:44:53;7.93;;;5.63;;
69754;SDS011;57023;52.218;5.158;2023-06-10T08:47:20;11.65;;;5.50;;
69754;SDS011;57023;52.218;5.158;2023-06-10T08:49:47;8.52;;;5.60;;
69754;SDS011;57023;52.218;5.158;2023-06-10T08:52:16;8.97;;;6.00;;
69754;SDS011;57023;52.218;5.158;2023-06-10T08:54:43;11.57;;;5.72;;
69754;SDS011;57023;52.218;5.158;2023-06-10T08:57:28;10.52;;;5.93;;
69754;SDS011;57023;52.218;5.158;2023-06-10T08:59:56;10.75;;;5.93;;
69754;SDS011;57023;52.218;5.158;2023-06-10T09:02:21;8.40;;;5.82;;
69754;SDS011;57023;52.218;5.158;2023-06-10T09:04:47;8.77;;;5.70;;
69754;SDS011;57023;52.218;5.158;2023-06-10T09:07:13;9.63;;;5.57;;
69754;SDS011;57023;52.218;5.158;2023-06-10T09:09:41;8.23;;;5.72;;
69754;SDS011;57023;52.218;5.158;2023-06-10T09:12:07;7.88;;;5.45;;
69754;SDS011;57023;52.218;5.158;2023-06-10T09:14:33;7.65;;;5.22;;
69754;SDS011;57023;52.218;5.158;2023-06-10T09:16:58;8.20;;;6.17;;
69754;SDS011;57023;52.218;5.158;2023-06-10T09:19:24;9.70;;;5.57;;
69754;SDS011;57023;52.218;5.158;2023-06-10T09:21:50;8.85;;;5.50;;
69754;SDS011;57023;52.218;5.158;2023-06-10T09:24:15;10.77;;;5.50;;
69754;SDS011;57023;52.218;5.158;2023-06-10T09:26:41;9.43;;;5.73;;
69754;SDS011;57023;52.218;5.158;2023-06-10T09:29:07;7.97;;;5.40;;
69754;SDS011;57023;52.218;5.158;2023-06-10T09:31:36;7.20;;;5.50;;
69754;SDS011;57023;52.218;5.158;2023-06-10T09:34:07;7.53;;;5.45;;
69754;SDS011;57023;52.218;5.158;2023-06-10T09:36:35;11.07;;;6.00;;
69754;SDS011;57023;52.218;5.158;2023-06-10T09:39:01;7.72;;;5.45;;
69754;SDS011;57023;52.218;5.158;2023-06-10T09:41:39;7.72;;;5.13;;
69754;SDS011;57023;52.218;5.158;2023-06-10T09:44:09;11.10;;;5.63;;
69754;SDS011;57023;52.218;5.158;2023-06-10T09:46:46;9.07;;;5.32;;
69754;SDS011;57023;52.218;5.158;2023-06-10T09:49:13;9.40;;;5.50;;
69754;SDS011;57023;52.218;5.158;2023-06-10T09:51:48;8.70;;;6.00;;
69754;SDS011;57023;52.218;5.158;2023-06-10T09:54:14;10.43;;;5.90;;
69754;SDS011;57023;52.218;5.158;2023-06-10T09:56:40;7.27;;;5.10;;
69754;SDS011;57023;52.218;5.158;2023-06-10T09:59:07;8.50;;;5.50;;
69754;SDS011;57023;52.218;5.158;2023-06-10T10:01:33;7.40;;;5.43;;
69754;SDS011;57023;52.218;5.158;2023-06-10T10:03:58;8.77;;;5.60;;
69754;SDS011;57023;52.218;5.158;2023-06-10T10:06:24;7.38;;;5.40;;
69754;SDS011;57023;52.218;5.158;2023-06-10T10:08:50;9.45;;;5.47;;
69754;SDS011;57023;52.218;5.158;2023-06-10T10:11:22;12.57;;;5.78;;
69754;SDS011;57023;52.218;5.158;2023-06-10T10:13:48;6.28;;;5.00;;
69754;SDS011;57023;52.218;5.158;2023-06-10T10:16:16;8.48;;;5.80;;
69754;SDS011;57023;52.218;5.158;2023-06-10T10:18:46;11.38;;;5.47;;
69754;SDS011;57023;52.218;5.158;2023-06-10T10:21:15;8.15;;;5.65;;
69754;SDS011;57023;52.218;5.158;2023-06-10T10:23:57;8.55;;;5.25;;
69754;SDS011;57023;52.218;5.158;2023-06-10T10:26:27;7.72;;;5.55;;
69754;SDS011;57023;52.218;5.158;2023-06-10T10:28:58;7.85;;;5.32;;
69754;SDS011;57023;52.218;5.158;2023-06-10T10:31:29;9.77;;;5.70;;
69754;SDS011;57023;52.218;5.158;2023-06-10T10:33:58;7.95;;;5.03;;
69754;SDS011;57023;52.218;5.158;2023-06-10T10:38:50;7.28;;;5.28;;
69754;SDS011;57023;52.218;5.158;2023-06-10T10:46:09;8.57;;;5.27;;
69754;SDS011;57023;52.218;5.158;2023-06-10T10:48:37;7.13;;;5.25;;
69754;SDS011;57023;52.218;5.158;2023-06-10T10:51:03;9.45;;;5.43;;
69754;SDS011;57023;52.218;5.158;2023-06-10T10:58:26;9.40;;;5.40;;
69754;SDS011;57023;52.218;5.158;2023-06-10T11:00:51;8.57;;;5.28;;
69754;SDS011;57023;52.218;5.158;2023-06-10T11:10:54;7.25;;;5.15;;
69754;SDS011;57023;52.218;5.158;2023-06-10T11:13:20;9.23;;;5.20;;
69754;SDS011;57023;52.218;5.158;2023-06-10T11:15:47;9.05;;;5.05;;
69754;SDS011;57023;52.218;5.158;2023-06-10T11:18:23;13.30;;;5.40;;
69754;SDS011;57023;52.218;5.158;2023-06-10T11:20:57;7.18;;;5.18;;
69754;SDS011;57023;52.218;5.158;2023-06-10T11:31:20;7.95;;;5.10;;
69754;SDS011;57023;52.218;5.158;2023-06-10T11:34:07;6.18;;;4.72;;
69754;SDS011;57023;52.218;5.158;2023-06-10T11:36:34;7.63;;;4.88;;
69754;SDS011;57023;52.218;5.158;2023-06-10T11:39:05;7.13;;;5.10;;
69754;SDS011;57023;52.218;5.158;2023-06-10T11:41:34;9.52;;;5.03;;
69754;SDS011;57023;52.218;5.158;2023-06-10T11:44:01;7.72;;;4.97;;
69754;SDS011;57023;52.218;5.158;2023-06-10T11:46:30;8.57;;;5.22;;
69754;SDS011;57023;52.218;5.158;2023-06-10T11:48:56;7.33;;;5.00;;
69754;SDS011;57023;52.218;5.158;2023-06-10T11:51:26;9.73;;;5.32;;
69754;SDS011;57023;52.218;5.158;2023-06-10T11:53:52;6.05;;;5.10;;
69754;SDS011;57023;52.218;5.158;2023-06-10T11:56:25;6.97;;;5.03;;
69754;SDS011;57023;52.218;5.158;2023-06-10T12:01:20;7.15;;;4.70;;
69754;SDS011;57023;52.218;5.158;2023-06-10T12:03:46;6.38;;;4.97;;
69754;SDS011;57023;52.218;5.158;2023-06-10T12:06:12;6.63;;;5.00;;
69754;SDS011;57023;52.218;5.158;2023-06-10T12:08:41;7.07;;;4.73;;
69754;SDS011;57023;52.218;5.158;2023-06-10T12:11:07;8.32;;;4.95;;
69754;SDS011;57023;52.218;5.158;2023-06-10T12:13:35;6.45;;;5.35;;
69754;SDS011;57023;52.218;5.158;2023-06-10T12:16:07;5.87;;;4.77;;
69754;SDS011;57023;52.218;5.158;2023-06-10T12:18:35;8.95;;;5.47;;
69754;SDS011;57023;52.218;5.158;2023-06-10T12:21:00;6.88;;;4.90;;
69754;SDS011;57023;52.218;5.158;2023-06-10T12:23:29;7.57;;;5.15;;
69754;SDS011;57023;52.218;5.158;2023-06-10T12:25:54;7.25;;;4.75;;
69754;SDS011;57023;52.218;5.158;2023-06-10T12:28:23;8.52;;;5.10;;
69754;SDS011;57023;52.218;5.158;2023-06-10T12:30:49;8.50;;;4.97;;
69754;SDS011;57023;52.218;5.158;2023-06-10T12:33:16;7.68;;;4.90;;
69754;SDS011;57023;52.218;5.158;2023-06-10T12:35:48;6.40;;;5.10;;
69754;SDS011;57023;52.218;5.158;2023-06-10T12:38:14;9.07;;;5.60;;
69754;SDS011;57023;52.218;5.158;2023-06-10T12:40:40;8.05;;;5.30;;
69754;SDS011;57023;52.218;5.158;2023-06-10T12:43:08;6.45;;;4.80;;
69754;SDS011;57023;52.218;5.158;2023-06-10T12:45:37;7.95;;;5.20;;
69754;SDS011;57023;52.218;5.158;2023-06-10T12:48:19;7.07;;;5.05;;
69754;SDS011;57023;52.218;5.158;2023-06-10T12:50:56;8.05;;;5.03;;
69754;SDS011;57023;52.218;5.158;2023-06-10T12:53:22;6.60;;;4.82;;
69754;SDS011;57023;52.218;5.158;2023-06-10T12:55:48;7.60;;;5.20;;
69754;SDS011;57023;52.218;5.158;2023-06-10T12:58:13;7.53;;;5.30;;
69754;SDS011;57023;52.218;5.158;2023-06-10T13:00:42;6.68;;;5.10;;
69754;SDS011;57023;52.218;5.158;2023-06-10T13:03:10;7.80;;;4.63;;
69754;SDS011;57023;52.218;5.158;2023-06-10T13:05:38;6.25;;;4.72;;
69754;SDS011;57023;52.218;5.158;2023-06-10T13:08:04;6.93;;;5.03;;
69754;SDS011;57023;52.218;5.158;2023-06-10T13:10:36;6.47;;;4.93;;
69754;SDS011;57023;52.218;5.158;2023-06-10T13:13:04;7.72;;;5.15;;
69754;SDS011;57023;52.218;5.158;2023-06-10T13:15:32;8.23;;;5.22;;
69754;SDS011;57023;52.218;5.158;2023-06-10T13:18:04;8.40;;;5.15;;
69754;SDS011;57023;52.218;5.158;2023-06-10T13:20:29;8.18;;;5.00;;
69754;SDS011;57023;52.218;5.158;2023-06-10T13:22:55;7.20;;;4.57;;
69754;SDS011;57023;52.218;5.158;2023-06-10T13:25:21;5.90;;;4.87;;
69754;SDS011;57023;52.218;5.158;2023-06-10T13:27:46;8.30;;;5.07;;
69754;SDS011;57023;52.218;5.158;2023-06-10T13:30:12;7.65;;;4.70;;
69754;SDS011;57023;52.218;5.158;2023-06-10T13:32:37;6.70;;;5.00;;
69754;SDS011;57023;52.218;5.158;2023-06-10T13:35:03;6.85;;;5.28;;
69754;SDS011;57023;52.218;5.158;2023-06-10T13:37:32;6.63;;;4.80;;
69754;SDS011;57023;52.218;5.158;2023-06-10T13:39:58;6.18;;;5.00;;
69754;SDS011;57023;52.218;5.158;2023-06-10T13:42:23;6.22;;;5.07;;
69754;SDS011;57023;52.218;5.158;2023-06-10T13:44:51;11.23;;;5.30;;
69754;SDS011;57023;52.218;5.158;2023-06-10T13:47:16;8.75;;;4.95;;
69754;SDS011;57023;52.218;5.158;2023-06-10T13:49:42;7.18;;;4.93;;
69754;SDS011;57023;52.218;5.158;2023-06-10T13:52:07;6.15;;;4.90;;
69754;SDS011;57023;52.218;5.158;2023-06-10T13:54:33;7.20;;;4.90;;
69754;SDS011;57023;52.218;5.158;2023-06-10T13:57:00;7.90;;;5.00;;
69754;SDS011;57023;52.218;5.158;2023-06-10T13:59:26;6.72;;;4.95;;
69754;SDS011;57023;52.218;5.158;2023-06-10T14:01:52;6.63;;;5.10;;
69754;SDS011;57023;52.218;5.158;2023-06-10T14:04:17;6.47;;;4.80;;
69754;SDS011;57023;52.218;5.158;2023-06-10T14:06:42;6.65;;;4.63;;
69754;SDS011;57023;52.218;5.158;2023-06-10T14:09:10;6.30;;;4.85;;
69754;SDS011;57023;52.218;5.158;2023-06-10T14:11:36;6.65;;;4.85;;
69754;SDS011;57023;52.218;5.158;2023-06-10T14:14:01;6.50;;;4.63;;
69754;SDS011;57023;52.218;5.158;2023-06-10T14:16:26;6.97;;;4.95;;
69754;SDS011;57023;52.218;5.158;2023-06-10T14:18:52;8.05;;;4.90;;
69754;SDS011;57023;52.218;5.158;2023-06-10T14:21:17;6.17;;;4.70;;
69754;SDS011;57023;52.218;5.158;2023-06-10T14:23:42;6.73;;;4.77;;
69754;SDS011;57023;52.218;5.158;2023-06-10T14:26:11;7.15;;;4.97;;
69754;SDS011;57023;52.218;5.158;2023-06-10T14:28:36;6.70;;;5.00;;
69754;SDS011;57023;52.218;5.158;2023-06-10T14:31:02;6.47;;;4.60;;
69754;SDS011;57023;52.218;5.158;2023-06-10T14:33:27;6.73;;;4.57;;
69754;SDS011;57023;52.218;5.158;2023-06-10T14:35:53;7.35;;;5.03;;
69754;SDS011;57023;52.218;5.158;2023-06-10T14:38:18;7.47;;;5.07;;
69754;SDS011;57023;52.218;5.158;2023-06-10T14:40:43;7.50;;;4.82;;
69754;SDS011;57023;52.218;5.158;2023-06-10T14:43:09;8.90;;;4.87;;
69754;SDS011;57023;52.218;5.158;2023-06-10T14:45:35;7.28;;;4.88;;
69754;SDS011;57023;52.218;5.158;2023-06-10T14:48:04;5.90;;;4.70;;
69754;SDS011;57023;52.218;5.158;2023-06-10T14:50:29;6.35;;;4.43;;
69754;SDS011;57023;52.218;5.158;2023-06-10T14:52:55;5.97;;;4.77;;
69754;SDS011;57023;52.218;5.158;2023-06-10T14:55:20;6.33;;;4.73;;
69754;SDS011;57023;52.218;5.158;2023-06-10T14:57:47;6.55;;;4.28;;
69754;SDS011;57023;52.218;5.158;2023-06-10T15:00:16;6.87;;;4.50;;
69754;SDS011;57023;52.218;5.158;2023-06-10T15:02:44;7.97;;;5.10;;
69754;SDS011;57023;52.218;5.158;2023-06-10T15:05:12;8.13;;;4.45;;
69754;SDS011;57023;52.218;5.158;2023-06-10T15:07:39;7.10;;;4.65;;
69754;SDS011;57023;52.218;5.158;2023-06-10T15:10:05;6.43;;;4.70;;
69754;SDS011;57023;52.218;5.158;2023-06-10T15:12:30;7.95;;;5.10;;
69754;SDS011;57023;52.218;5.158;2023-06-10T15:14:56;8.13;;;4.72;;
69754;SDS011;57023;52.218;5.158;2023-06-10T15:17:24;6.72;;;4.50;;
69754;SDS011;57023;52.218;5.158;2023-06-10T15:19:52;6.23;;;4.30;;
69754;SDS011;57023;52.218;5.158;2023-06-10T15:22:17;7.20;;;4.97;;
69754;SDS011;57023;52.218;5.158;2023-06-10T15:24:43;7.57;;;4.93;;